Time;durP1;ratioP1;P1;durP2;ratioP2;P2;SDS_P1;SDS_P2;PMS_P1;PMS_P2;Temp;Humidity;BMP_temperature;BMP_pressure;BME280_temperature;BME280_humidity;BME280_pressure;Samples;Min_cycle;Max_cycle;Signal;HPM_P1;HPM_P2
2022/04/07 00:00:24;;;;;;;25.68;13.70;;;;;;;9.45;82.49;98861.30;1705296;82;26439;-79
2022/04/07 00:02:52;;;;;;;19.95;11.90;;;;;;;9.42;82.48;98854.55;1718456;82;25326;-79
2022/04/07 00:05:18;;;;;;;22.60;12.50;;;;;;;9.40;82.50;98851.28;1690436;82;25888;-79
2022/04/07 00:07:45;;;;;;;19.32;11.43;;;;;;;9.38;82.52;98843.17;1680531;83;25833;-79
2022/04/07 00:10:11;;;;;;;19.07;11.33;;;;;;;9.35;82.53;98836.41;1703785;82;27521;-79
2022/04/07 00:12:37;;;;;;;19.95;12.58;;;;;;;9.34;82.53;98838.27;1698687;82;26184;-79
2022/04/07 00:15:04;;;;;;;18.80;12.25;;;;;;;9.32;82.51;98830.20;1711655;81;25744;-79
2022/04/07 00:17:30;;;;;;;18.35;10.90;;;;;;;9.31;82.52;98834.72;1708206;82;25744;-79
2022/04/07 00:19:57;;;;;;;19.42;11.88;;;;;;;9.29;82.53;98830.11;1714321;83;25845;-79
2022/04/07 00:22:23;;;;;;;20.97;11.80;;;;;;;9.29;82.57;98820.77;1717504;83;27449;-79
2022/04/07 00:24:49;;;;;;;24.85;13.18;;;;;;;9.29;82.59;98825.28;1717687;83;25717;-79
2022/04/07 00:27:16;;;;;;;21.45;12.25;;;;;;;9.28;82.56;98818.32;1711500;82;26451;-79
2022/04/07 00:29:42;;;;;;;19.77;11.70;;;;;;;9.27;82.58;98816.67;1673866;83;25923;-79
2022/04/07 00:32:09;;;;;;;17.25;11.05;;;;;;;9.26;82.55;98816.36;1715980;82;25814;-79
2022/04/07 00:34:35;;;;;;;21.82;12.98;;;;;;;9.28;82.58;98815.11;1702647;82;27631;-79
2022/04/07 00:37:02;;;;;;;25.32;12.78;;;;;;;9.29;82.56;98807.91;1725590;82;25794;-79
2022/04/07 00:39:29;;;;;;;17.07;11.30;;;;;;;9.29;82.48;98806.58;1728974;81;25322;-79
2022/04/07 00:41:55;;;;;;;20.20;10.85;;;;;;;9.30;82.49;98807.69;1709082;82;25852;-79
2022/04/07 00:44:22;;;;;;;26.42;16.05;;;;;;;9.30;82.42;98805.02;1722681;82;25578;-79
2022/04/07 00:46:49;;;;;;;25.68;15.18;;;;;;;9.31;82.43;98795.16;1709919;82;27466;-79
2022/04/07 00:49:15;;;;;;;21.12;12.55;;;;;;;9.33;82.48;98793.07;1703361;83;25788;-79
2022/04/07 00:51:43;;;;;;;16.90;11.80;;;;;;;9.35;82.40;98790.99;1701120;82;26284;-79
2022/04/07 00:54:11;;;;;;;25.05;14.13;;;;;;;9.35;82.35;98790.99;1685985;82;25855;-79
2022/04/07 00:56:38;;;;;;;19.35;12.93;;;;;;;9.33;82.24;98781.87;1705221;82;26492;-80
2022/04/07 00:59:06;;;;;;;16.35;12.33;;;;;;;9.32;82.22;98783.44;1716269;82;27456;-80
2022/04/07 01:01:33;;;;;;;17.15;11.00;;;;;;;9.32;82.21;98786.91;1681788;84;25883;-79
2022/04/07 01:03:59;;;;;;;18.30;10.90;;;;;;;9.32;82.24;98777.55;1698466;82;25809;-79
2022/04/07 01:06:26;;;;;;;17.52;10.70;;;;;;;9.34;82.22;98786.16;1708113;83;25731;-77
2022/04/07 01:08:53;;;;;;;18.95;11.90;;;;;;;9.36;82.21;98781.95;1702423;83;25804;-79
2022/04/07 01:11:19;;;;;;;21.27;11.30;;;;;;;9.38;82.15;98779.05;1703861;83;28330;-79
2022/04/07 01:13:51;;;;;;;16.73;10.98;;;;;;;9.40;82.11;98776.97;1711738;82;26416;-79
2022/04/07 01:16:20;;;;;;;19.65;10.75;;;;;;;9.41;82.11;98774.61;1706320;82;26346;-79
2022/04/07 01:18:46;;;;;;;18.32;10.88;;;;;;;9.40;81.97;98771.11;1713978;82;26641;-79
2022/04/07 01:21:15;;;;;;;16.65;10.23;;;;;;;9.42;81.93;98762.86;1705634;82;25863;-78
2022/04/07 01:23:52;;;;;;;19.52;11.18;;;;;;;9.42;81.90;98762.86;1719049;82;27454;-79
2022/04/07 01:26:19;;;;;;;17.25;11.33;;;;;;;9.42;81.86;98764.20;1695871;83;25793;-78
2022/04/07 01:28:49;;;;;;;15.23;10.18;;;;;;;9.42;81.82;98765.02;1691984;83;25942;-79
2022/04/07 01:31:15;;;;;;;21.80;11.77;;;;;;;9.42;81.88;98760.19;1716096;82;25437;-79
2022/04/07 01:33:43;;;;;;;18.57;10.85;;;;;;;9.42;81.79;98765.02;1710699;82;26006;-79
2022/04/07 01:36:10;;;;;;;18.27;11.05;;;;;;;9.43;81.81;98765.84;1691020;83;27427;-79
2022/04/07 01:38:37;;;;;;;17.92;11.35;;;;;;;9.44;81.82;98768.28;1708608;83;26079;-78
2022/04/07 01:41:03;;;;;;;19.52;11.30;;;;;;;9.44;81.76;98766.13;1728114;81;25823;-78
2022/04/07 01:43:30;;;;;;;19.57;10.72;;;;;;;9.45;81.83;98761.09;1709174;83;26261;-79
2022/04/07 01:45:57;;;;;;;18.87;10.48;;;;;;;9.45;81.79;98761.09;1715313;82;25845;-79
2022/04/07 01:48:24;;;;;;;18.40;11.10;;;;;;;9.46;81.79;98758.19;1705258;81;28533;-78
2022/04/07 01:50:50;;;;;;;18.70;10.88;;;;;;;9.45;81.76;98751.22;1724757;81;25884;-79
2022/04/07 01:53:18;;;;;;;17.05;10.90;;;;;;;9.44;81.71;98754.92;1696166;83;25762;-79
2022/04/07 01:55:47;;;;;;;17.40;10.40;;;;;;;9.45;81.66;98751.73;1744253;81;25725;-80
2022/04/07 01:58:16;;;;;;;15.50;9.93;;;;;;;9.45;81.58;98751.73;1712209;83;26526;-80
2022/04/07 02:00:42;;;;;;;19.67;11.95;;;;;;;9.43;81.52;98745.26;1711431;81;27537;-80
2022/04/07 02:03:10;;;;;;;17.25;10.40;;;;;;;9.42;81.51;98739.63;1710746;83;26001;-80
2022/04/07 02:05:36;;;;;;;17.60;11.08;;;;;;;9.41;81.43;98744.67;1731878;81;25796;-79
2022/04/07 02:08:03;;;;;;;14.83;10.30;;;;;;;9.41;81.45;98746.00;1718609;83;26282;-80
2022/04/07 02:10:31;;;;;;;16.48;10.30;;;;;;;9.39;81.38;98741.95;1737093;81;25847;-80
2022/04/07 02:12:58;;;;;;;17.23;10.63;;;;;;;9.37;81.37;98735.47;1683203;83;28269;-80
2022/04/07 02:15:26;;;;;;;16.77;10.13;;;;;;;9.37;81.36;98736.02;1726884;82;25939;-80
2022/04/07 02:17:53;;;;;;;17.67;10.18;;;;;;;9.33;81.34;98724.42;1702846;82;25852;-80
2022/04/07 02:20:19;;;;;;;17.98;10.50;;;;;;;9.32;81.39;98717.44;1736640;81;25769;-80
2022/04/07 02:22:46;;;;;;;15.15;10.18;;;;;;;9.31;81.36;98725.17;1728380;81;25861;-79
2022/04/07 02:25:12;;;;;;;17.50;10.93;;;;;;;9.31;81.32;98719.83;1694678;83;27435;-80
2022/04/07 02:27:42;;;;;;;15.95;10.10;;;;;;;9.31;81.30;98721.16;1730568;81;26035;-80
2022/04/07 02:30:12;;;;;;;17.27;10.50;;;;;;;9.30;81.26;98717.39;1740160;81;26018;-79
2022/04/07 02:32:39;;;;;;;18.48;11.10;;;;;;;9.29;81.30;98714.41;1721582;81;25750;-82
2022/04/07 02:35:07;;;;;;;16.87;10.43;;;;;;;9.26;81.31;98708.16;1670129;84;25879;-80
2022/04/07 02:37:34;;;;;;;18.07;10.68;;;;;;;9.25;81.32;98705.21;1687180;83;28287;-80
2022/04/07 02:40:01;;;;;;;17.27;9.70;;;;;;;9.22;81.34;98699.80;1693926;84;26473;-80
2022/04/07 02:42:27;;;;;;;16.55;10.08;;;;;;;9.20;81.42;98700.54;1685654;82;25912;-79
2022/04/07 02:44:53;;;;;;;17.85;10.13;;;;;;;9.24;81.47;98707.58;1682004;82;25863;-80
2022/04/07 02:47:19;;;;;;;15.23;9.85;;;;;;;9.23;81.44;98698.77;1719242;83;25892;-80
2022/04/07 02:49:46;;;;;;;14.95;10.03;;;;;;;9.19;81.42;98704.27;1687448;83;27453;-80
2022/04/07 02:52:12;;;;;;;16.23;10.50;;;;;;;9.17;81.53;98699.64;1679800;83;25934;-80
2022/04/07 02:54:38;;;;;;;14.13;9.35;;;;;;;9.17;81.53;98694.84;1680403;85;25859;-80
2022/04/07 02:57:05;;;;;;;13.90;9.93;;;;;;;9.17;81.56;98700.97;1680697;84;26489;-80
2022/04/07 02:59:33;;;;;;;19.98;12.10;;;;;;;9.15;81.57;98703.59;1673968;83;25914;-80
2022/04/07 03:01:59;;;;;;;19.92;10.50;;;;;;;9.15;81.56;98691.58;1708660;82;27458;-80
2022/04/07 03:04:25;;;;;;;15.53;9.73;;;;;;;9.12;81.51;98684.82;1732852;81;25911;-80
2022/04/07 03:06:52;;;;;;;18.98;10.60;;;;;;;9.11;81.52;98691.19;1706905;83;26410;-80
2022/04/07 03:09:19;;;;;;;16.23;10.70;;;;;;;9.11;81.49;98693.86;1705075;82;25833;-80
2022/04/07 03:11:46;;;;;;;21.00;10.65;;;;;;;9.10;81.52;98692.75;1706939;83;26682;-80
2022/04/07 03:14:14;;;;;;;18.12;11.00;;;;;;;9.09;81.53;98689.77;1705474;82;27470;-79
2022/04/07 03:16:41;;;;;;;19.10;11.43;;;;;;;9.08;81.54;98692.16;1705572;82;25931;-80
2022/04/07 03:19:09;;;;;;;17.07;10.75;;;;;;;9.06;81.53;98689.73;1695708;82;25988;-80
2022/04/07 03:21:35;;;;;;;17.77;10.38;;;;;;;9.05;81.49;98687.25;1699326;82;26300;-80
2022/04/07 03:24:01;;;;;;;17.80;10.58;;;;;;;8.99;81.40;98686.82;1714073;82;25767;-80
2022/04/07 03:26:28;;;;;;;18.70;11.10;;;;;;;8.97;81.50;98686.23;1700441;82;27479;-79
2022/04/07 03:28:54;;;;;;;15.43;10.58;;;;;;;8.93;81.50;98684.53;1715755;82;25954;-80
2022/04/07 03:31:24;;;;;;;15.38;10.58;;;;;;;8.90;81.53;98679.62;1716789;82;25776;-83
2022/04/07 03:33:54;;;;;;;18.42;11.28;;;;;;;8.89;81.50;98678.52;1720964;82;25859;-80
2022/04/07 03:36:20;;;;;;;16.77;10.93;;;;;;;8.87;81.51;98682.75;1719934;81;25816;-80
2022/04/07 03:38:48;;;;;;;17.95;11.22;;;;;;;8.84;81.51;98678.36;1719808;82;28301;-80
2022/04/07 03:41:15;;;;;;;17.85;11.08;;;;;;;8.81;81.45;98678.28;1736215;80;25948;-80
2022/04/07 03:43:42;;;;;;;17.27;11.08;;;;;;;8.80;81.47;98675.84;1703889;83;25829;-80
2022/04/07 03:46:10;;;;;;;18.77;11.88;;;;;;;8.78;81.51;98668.58;1740699;81;25839;-80
2022/04/07 03:48:37;;;;;;;20.68;12.53;;;;;;;8.75;81.45;98672.50;1711817;83;25810;-80
2022/04/07 03:51:03;;;;;;;17.60;11.57;;;;;;;8.76;81.54;98671.47;1718737;83;27628;-81
2022/04/07 03:53:30;;;;;;;19.75;11.28;;;;;;;8.77;81.52;98680.31;1715081;82;25974;-81
2022/04/07 03:55:56;;;;;;;18.85;11.38;;;;;;;8.76;81.43;98679.48;1708589;83;25801;-80
2022/04/07 03:58:22;;;;;;;17.25;10.88;;;;;;;8.73;81.34;98677.75;1714949;83;26491;-80
2022/04/07 04:00:49;;;;;;;16.57;10.25;;;;;;;8.72;81.34;98684.14;1713853;83;26493;-81
2022/04/07 04:03:17;;;;;;;20.55;11.30;;;;;;;8.73;81.30;98687.09;1710063;83;27621;-82
2022/04/07 04:05:45;;;;;;;15.87;10.83;;;;;;;8.69;81.31;98689.91;1712952;81;25821;-78
2022/04/07 04:08:11;;;;;;;19.27;11.22;;;;;;;8.68;81.29;98696.30;1722468;82;25310;-78
2022/04/07 04:10:37;;;;;;;19.90;10.82;;;;;;;8.67;81.38;98687.48;1724008;82;25874;-79
2022/04/07 04:13:03;;;;;;;17.37;11.00;;;;;;;8.68;81.43;98687.78;1722639;82;25819;-79
2022/04/07 04:15:30;;;;;;;17.52;10.88;;;;;;;8.67;81.36;98688.81;1722993;82;27535;-78
2022/04/07 04:17:56;;;;;;;22.35;12.37;;;;;;;8.64;81.33;98689.23;1697766;82;25359;-78
2022/04/07 04:20:22;;;;;;;19.37;11.05;;;;;;;8.61;81.34;98688.36;1691287;82;25801;-79
2022/04/07 04:22:50;;;;;;;17.05;10.53;;;;;;;8.61;81.50;98687.54;1691842;82;25900;-78
2022/04/07 04:25:17;;;;;;;18.92;11.95;;;;;;;8.64;81.49;98684.44;1705651;81;25944;-79
2022/04/07 04:27:43;;;;;;;18.32;11.53;;;;;;;8.64;81.40;98688.45;1704773;81;27696;-78
2022/04/07 04:30:13;;;;;;;16.75;11.22;;;;;;;8.64;81.36;98695.91;1702328;81;26312;-78
2022/04/07 04:32:41;;;;;;;18.75;11.35;;;;;;;8.61;81.26;98693.70;1708524;81;25757;-79
2022/04/07 04:35:08;;;;;;;17.05;11.08;;;;;;;8.59;81.18;98693.62;1718745;81;25717;-78
2022/04/07 04:37:34;;;;;;;18.60;10.80;;;;;;;8.55;81.29;98698.05;1731709;81;25735;-78
2022/04/07 04:40:01;;;;;;;17.92;10.72;;;;;;;8.50;81.40;98700.58;1692520;84;27518;-78
2022/04/07 04:42:27;;;;;;;16.48;11.05;;;;;;;8.49;81.48;98692.77;1709017;83;25917;-78
2022/04/07 04:44:53;;;;;;;19.15;11.95;;;;;;;8.48;81.67;98693.82;1714654;83;26067;-78
2022/04/07 04:47:19;;;;;;;17.57;10.65;;;;;;;8.49;81.83;98692.77;1713887;83;26011;-78
2022/04/07 04:49:46;;;;;;;19.95;11.83;;;;;;;8.54;82.01;98696.94;1703369;82;25817;-78
2022/04/07 04:52:12;;;;;;;17.75;11.65;;;;;;;8.59;82.13;98690.95;1707308;82;27531;-78
2022/04/07 04:54:39;;;;;;;20.27;12.75;;;;;;;8.65;82.22;98688.73;1704894;82;25319;-77
2022/04/07 04:57:06;;;;;;;21.02;12.80;;;;;;;8.69;82.34;98688.07;1707118;83;25887;-78
2022/04/07 04:59:33;;;;;;;19.42;13.43;;;;;;;8.73;82.37;98689.25;1746361;81;25905;-78
2022/04/07 05:01:59;;;;;;;19.30;12.23;;;;;;;8.75;82.32;98694.36;1707690;83;25897;-78
2022/04/07 05:04:26;;;;;;;21.75;11.70;;;;;;;8.76;82.34;98684.82;1697644;82;26994;-78
2022/04/07 05:06:52;;;;;;;18.73;11.65;;;;;;;8.78;82.33;98682.74;1702952;83;25798;-78
2022/04/07 05:09:18;;;;;;;18.70;12.18;;;;;;;8.80;82.38;98682.52;1723811;83;25792;-78
2022/04/07 05:11:44;;;;;;;16.60;10.85;;;;;;;8.83;82.47;98688.76;1754743;81;26244;-78
2022/04/07 05:14:11;;;;;;;17.57;10.68;;;;;;;8.83;82.34;98680.20;1710545;83;25750;-78
2022/04/07 05:16:37;;;;;;;16.37;9.38;;;;;;;8.87;82.43;98686.77;1701488;82;27460;-78
2022/04/07 05:19:03;;;;;;;18.50;10.72;;;;;;;8.92;82.40;98684.73;1707765;83;26589;-78
2022/04/07 05:21:29;;;;;;;16.62;10.80;;;;;;;8.98;82.36;98685.20;1736634;81;25775;-78
2022/04/07 05:23:55;;;;;;;14.20;10.08;;;;;;;9.01;82.32;98682.89;1724199;82;26296;-78
2022/04/07 05:26:22;;;;;;;16.07;10.58;;;;;;;9.07;82.18;98681.17;1730671;81;25729;-78
2022/04/07 05:28:48;;;;;;;15.45;10.00;;;;;;;9.10;82.15;98676.22;1738427;81;28278;-78
2022/04/07 05:31:14;;;;;;;15.75;10.05;;;;;;;9.15;82.21;98673.67;1734695;81;25778;-78
2022/04/07 05:33:40;;;;;;;14.80;10.60;;;;;;;9.19;82.15;98673.55;1698152;83;26020;-78
2022/04/07 05:36:06;;;;;;;17.45;10.60;;;;;;;9.25;82.22;98677.98;1746279;81;25805;-78
2022/04/07 05:38:33;;;;;;;18.10;10.80;;;;;;;9.30;82.12;98675.98;1724689;81;25976;-78
2022/04/07 05:40:59;;;;;;;13.40;9.68;;;;;;;9.36;82.14;98671.58;1722795;81;28232;-78
2022/04/07 05:43:27;;;;;;;16.27;10.95;;;;;;;9.41;82.11;98679.74;1719151;81;26051;-78
2022/04/07 05:45:53;;;;;;;15.68;9.35;;;;;;;9.45;82.03;98672.39;1719543;81;26302;-79
2022/04/07 05:48:19;;;;;;;14.47;9.85;;;;;;;9.50;82.05;98675.69;1719146;81;26429;-78
2022/04/07 05:50:46;;;;;;;15.40;9.88;;;;;;;9.54;82.03;98680.91;1719361;83;25839;-78
2022/04/07 05:53:12;;;;;;;14.93;9.30;;;;;;;9.59;81.88;98679.17;1719088;81;27462;-79
2022/04/07 05:55:38;;;;;;;15.68;9.60;;;;;;;9.64;81.85;98679.83;1718843;81;25805;-78
2022/04/07 05:58:06;;;;;;;16.05;9.85;;;;;;;9.71;81.78;98677.89;1733064;81;25796;-78
2022/04/07 06:00:34;;;;;;;13.88;9.08;;;;;;;9.73;81.59;98670.45;1719470;82;26542;-78
2022/04/07 06:03:00;;;;;;;17.07;9.18;;;;;;;9.78;81.57;98665.22;1732516;81;26516;-78
2022/04/07 06:05:26;;;;;;;14.47;9.15;;;;;;;9.82;81.38;98667.73;1723990;80;27493;-78
2022/04/07 06:08:03;;;;;;;15.80;10.08;;;;;;;9.88;81.37;98660.95;1697784;82;25935;-78
2022/04/07 06:10:30;;;;;;;14.23;8.68;;;;;;;9.93;81.29;98655.73;1714029;82;25797;-78
2022/04/07 06:12:56;;;;;;;13.38;8.53;;;;;;;10.00;81.06;98657.80;1710970;82;26258;-78
2022/04/07 06:15:23;;;;;;;18.73;10.00;;;;;;;10.07;80.98;98659.81;1703035;82;25806;-78
2022/04/07 06:17:50;;;;;;;13.40;8.48;;;;;;;10.13;80.37;98656.80;1705656;82;28289;-78
2022/04/07 06:20:17;;;;;;;11.68;7.78;;;;;;;10.19;80.34;98660.39;1715849;82;26029;-78
2022/04/07 06:22:44;;;;;;;13.50;7.40;;;;;;;10.23;79.95;98646.32;1712421;82;25812;-78
2022/04/07 06:25:12;;;;;;;16.60;8.55;;;;;;;10.27;79.45;98652.02;1696986;82;25817;-78
2022/04/07 06:27:45;;;;;;;13.03;8.35;;;;;;;10.30;79.06;98655.06;1727171;82;26348;-78
2022/04/07 06:30:19;;;;;;;12.10;8.18;;;;;;;10.38;78.46;98655.22;1717664;82;28318;-78
2022/04/07 06:32:46;;;;;;;10.75;7.25;;;;;;;10.50;79.03;98648.82;1702131;83;25894;-79
2022/04/07 06:35:15;;;;;;;14.05;8.58;;;;;;;10.66;78.79;98655.34;1704127;83;25934;-78
2022/04/07 06:37:52;;;;;;;12.37;8.35;;;;;;;10.78;79.00;98650.77;1725456;82;26107;-78
2022/04/07 06:40:20;;;;;;;12.05;8.38;;;;;;;10.88;77.89;98655.03;1709170;82;26433;-79
2022/04/07 06:42:51;;;;;;;12.73;7.60;;;;;;;10.99;78.17;98635.41;1703041;83;27458;-78
2022/04/07 06:45:18;;;;;;;12.78;7.72;;;;;;;11.06;77.80;98642.80;1695314;84;26486;-78
2022/04/07 06:47:44;;;;;;;13.85;7.83;;;;;;;11.14;77.14;98644.31;1695823;83;26392;-78
2022/04/07 06:50:13;;;;;;;11.45;7.33;;;;;;;11.19;76.46;98637.17;1695380;83;25745;-79
2022/04/07 06:52:41;;;;;;;10.20;6.67;;;;;;;11.25;76.16;98640.23;1695413;83;25821;-78
2022/04/07 06:55:10;;;;;;;10.03;7.67;;;;;;;11.33;75.94;98641.74;1695438;83;27476;-78
2022/04/07 06:57:53;;;;;;;11.25;6.28;;;;;;;11.39;76.02;98640.78;1695954;83;25783;-79
2022/04/07 07:00:22;;;;;;;10.63;6.70;;;;;;;11.45;75.06;98638.48;1708860;81;26165;-79
2022/04/07 07:02:53;;;;;;;10.78;5.92;;;;;;;11.51;75.30;98640.19;1697439;82;26489;-78
2022/04/07 07:05:21;;;;;;;9.33;6.08;;;;;;;11.57;74.78;98639.23;1713104;82;25853;-78
2022/04/07 07:07:48;;;;;;;11.22;7.17;;;;;;;11.63;74.33;98642.31;1693796;82;27464;-78
2022/04/07 07:10:20;;;;;;;11.43;5.62;;;;;;;11.67;74.32;98637.30;1687146;82;25618;-78
2022/04/07 07:12:50;;;;;;;11.22;6.17;;;;;;;11.70;73.44;98636.28;1687182;82;25820;-78
2022/04/07 07:15:16;;;;;;;9.18;5.15;;;;;;;11.72;73.11;98637.41;1685775;82;26139;-78
2022/04/07 07:17:43;;;;;;;11.55;6.45;;;;;;;11.71;72.36;98629.06;1668146;83;25854;-78
2022/04/07 07:20:11;;;;;;;12.35;5.97;;;;;;;11.71;72.05;98633.08;1692207;82;28805;-78
2022/04/07 07:22:42;;;;;;;8.40;5.85;;;;;;;11.70;72.42;98626.89;1675315;83;26792;-78
2022/04/07 07:25:10;;;;;;;7.17;4.85;;;;;;;11.72;72.66;98628.02;1688269;82;25822;-78
2022/04/07 07:27:39;;;;;;;10.55;5.40;;;;;;;11.75;71.92;98625.66;1680626;83;26005;-78
2022/04/07 07:30:11;;;;;;;8.53;5.10;;;;;;;11.77;71.33;98622.20;1672113;83;25805;-78
2022/04/07 07:32:41;;;;;;;6.67;4.47;;;;;;;11.82;71.78;98616.93;1700597;81;27526;-78
2022/04/07 07:35:09;;;;;;;13.38;5.83;;;;;;;11.88;71.18;98619.98;1699789;81;25822;-78
2022/04/07 07:37:37;;;;;;;12.93;5.50;;;;;;;11.97;71.47;98617.71;1670414;83;26405;-78
2022/04/07 07:40:07;;;;;;;7.10;4.55;;;;;;;12.07;71.85;98614.66;1709446;81;25577;-78
2022/04/07 07:42:34;;;;;;;7.05;4.67;;;;;;;12.16;71.42;98611.86;1703431;81;25887;-78
2022/04/07 07:45:00;;;;;;;8.93;4.47;;;;;;;12.23;69.75;98605.77;1682632;83;28055;-78
2022/04/07 07:47:26;;;;;;;8.45;5.15;;;;;;;12.28;69.96;98609.88;1713402;81;25892;-78
2022/04/07 07:49:53;;;;;;;7.95;4.50;;;;;;;12.34;69.16;98609.42;1717669;81;25857;-78
2022/04/07 07:52:19;;;;;;;8.40;4.90;;;;;;;12.38;68.76;98607.89;1738274;81;26542;-78
2022/04/07 07:54:45;;;;;;;8.75;3.80;;;;;;;12.45;68.89;98603.66;1754481;81;25868;-78
2022/04/07 07:57:12;;;;;;;9.23;4.22;;;;;;;12.48;68.55;98607.21;1710317;83;27432;-78
2022/04/07 07:59:38;;;;;;;7.83;4.10;;;;;;;12.48;67.59;98612.58;1710893;82;25915;-78
2022/04/07 08:02:04;;;;;;;9.85;4.42;;;;;;;12.45;66.65;98607.69;1704634;83;26524;-78
2022/04/07 08:04:31;;;;;;;7.62;4.15;;;;;;;12.44;66.89;98610.94;1719011;81;25983;-78
2022/04/07 08:06:57;;;;;;;7.50;4.30;;;;;;;12.47;67.52;98620.38;1696106;82;25713;-78
2022/04/07 08:09:23;;;;;;;7.33;4.60;;;;;;;12.51;67.50;98615.58;1691520;82;27441;-78
2022/04/07 08:11:49;;;;;;;6.70;4.53;;;;;;;12.57;67.79;98615.95;1677819;83;25882;-79
2022/04/07 08:14:16;;;;;;;6.72;4.10;;;;;;;12.61;67.33;98609.55;1679773;83;25777;-79
2022/04/07 08:16:42;;;;;;;7.45;4.10;;;;;;;12.62;66.88;98615.19;1677594;83;25824;-78
2022/04/07 08:19:10;;;;;;;7.15;4.33;;;;;;;12.65;66.69;98609.33;1699675;82;25787;-78
2022/04/07 08:21:37;;;;;;;8.60;5.03;;;;;;;12.76;67.18;98609.23;1677101;83;27441;-78
2022/04/07 08:24:04;;;;;;;8.43;4.92;;;;;;;12.92;68.43;98611.03;1695957;82;25936;-78
2022/04/07 08:26:31;;;;;;;6.75;4.35;;;;;;;13.08;66.75;98602.67;1689064;82;25742;-79
2022/04/07 08:28:57;;;;;;;5.92;4.47;;;;;;;13.18;64.92;98608.15;1701743;81;25826;-79
2022/04/07 08:31:25;;;;;;;9.45;4.75;;;;;;;13.24;65.09;98597.73;1704111;81;25838;-78
2022/04/07 08:33:52;;;;;;;10.88;5.37;;;;;;;13.27;64.63;98601.27;1680875;83;27513;-78
2022/04/07 08:36:19;;;;;;;8.13;4.92;;;;;;;13.26;64.81;98600.19;1704027;81;43140;-78
2022/04/07 08:38:45;;;;;;;6.97;4.72;;;;;;;13.28;64.57;98599.41;1673408;83;25763;-78
2022/04/07 08:41:12;;;;;;;7.47;5.03;;;;;;;13.34;64.47;98598.39;1691351;82;26269;-78
2022/04/07 08:43:40;;;;;;;8.03;5.50;;;;;;;13.46;64.36;98599.04;1674105;83;25900;-78
2022/04/07 08:46:08;;;;;;;6.53;4.15;;;;;;;13.57;64.22;98590.83;1691935;82;28284;-78
2022/04/07 08:48:43;;;;;;;6.53;4.75;;;;;;;13.68;62.75;98590.39;1673012;83;25930;-78
2022/04/07 08:51:11;;;;;;;7.03;4.87;;;;;;;13.77;63.71;98583.48;1685892;83;26010;-78
2022/04/07 08:53:39;;;;;;;8.08;4.50;;;;;;;13.89;62.94;98586.81;1673905;83;25923;-78
2022/04/07 08:56:08;;;;;;;8.10;5.22;;;;;;;13.96;61.98;98579.86;1690212;82;25805;-78
2022/04/07 08:58:34;;;;;;;7.95;4.97;;;;;;;14.00;61.70;98577.75;1673131;83;27622;-78
2022/04/07 09:01:01;;;;;;;6.30;4.60;;;;;;;14.06;62.31;98579.41;1691418;82;25866;-78
2022/04/07 09:03:28;;;;;;;10.38;5.08;;;;;;;14.15;62.54;98575.17;1689445;82;26088;-78
2022/04/07 09:05:58;;;;;;;13.32;5.67;;;;;;;14.28;62.91;98571.22;1675935;83;25834;-78
2022/04/07 09:08:36;;;;;;;9.65;4.62;;;;;;;14.37;62.68;98560.27;1704811;81;25945;-78
2022/04/07 09:11:06;;;;;;;8.83;5.17;;;;;;;14.42;61.53;98557.59;1700831;81;28113;-78
2022/04/07 09:13:36;;;;;;;9.90;4.50;;;;;;;14.45;61.71;98548.47;1708980;81;26455;-78
2022/04/07 09:16:04;;;;;;;8.23;4.72;;;;;;;14.48;61.24;98543.89;1702389;83;26745;-78
2022/04/07 09:18:35;;;;;;;5.95;4.33;;;;;;;14.49;61.85;98548.75;1701610;83;25338;-78
2022/04/07 09:21:02;;;;;;;;;;;;;;;14.49;61.49;98540.66;1705340;83;26497;-79
2022/04/07 09:23:39;;;;;;;8.13;5.35;;;;;;;14.53;61.57;98540.41;1704829;83;27592;-78
2022/04/07 09:26:16;;;;;;;6.72;4.70;;;;;;;14.52;61.39;98538.80;1705557;81;25789;-78
2022/04/07 09:28:43;;;;;;;8.60;5.70;;;;;;;14.49;61.49;98538.78;1706871;81;25714;-78
2022/04/07 09:31:15;;;;;;;6.90;4.67;;;;;;;14.45;61.29;98527.45;1701600;83;26129;-78
2022/04/07 09:33:41;;;;;;;10.63;5.67;;;;;;;14.47;61.74;98521.26;1692204;81;25813;-78
2022/04/07 09:36:11;;;;;;;10.68;6.20;;;;;;;14.56;62.75;98533.95;1700518;81;28222;-78
2022/04/07 09:38:40;;;;;;;10.25;6.60;;;;;;;14.63;62.25;98520.24;1673138;83;25805;-78
2022/04/07 09:41:10;;;;;;;8.95;6.37;;;;;;;14.63;62.78;98525.09;1670125;83;26329;-79
2022/04/07 09:43:53;;;;;;;8.25;6.03;;;;;;;14.71;64.18;98515.72;1701810;81;25793;-78
2022/04/07 09:46:21;;;;;;;7.90;5.83;;;;;;;14.81;63.24;98513.05;1700535;81;26012;-78
2022/04/07 09:49:07;;;;;;;7.40;4.70;;;;;;;14.88;63.41;98512.27;1669546;83;28285;-78
2022/04/07 09:51:45;;;;;;;7.55;5.08;;;;;;;14.95;61.53;98506.08;1692756;82;25813;-78
2022/04/07 09:54:12;;;;;;;6.20;4.97;;;;;;;15.00;61.98;98502.05;1712110;82;25834;-78
2022/04/07 09:56:38;;;;;;;8.65;5.17;;;;;;;15.08;60.17;98489.39;1712671;82;26064;-79
2022/04/07 09:59:06;;;;;;;7.70;5.20;;;;;;;15.12;61.70;98487.78;1714720;82;25903;-78
2022/04/07 10:01:34;;;;;;;8.80;4.83;;;;;;;15.23;62.33;98490.77;1718487;83;27456;-78
2022/04/07 10:04:08;;;;;;;10.82;5.03;;;;;;;15.33;61.76;98485.94;1724431;81;26584;-78
2022/04/07 10:06:37;;;;;;;6.95;4.42;;;;;;;15.39;61.29;98482.16;1724639;81;25981;-78
2022/04/07 10:09:08;;;;;;;5.33;4.20;;;;;;;15.30;59.49;98475.14;1712640;81;25719;-78
2022/04/07 10:11:36;;;;;;;5.35;4.28;;;;;;;15.29;60.28;98470.03;1685708;83;25814;-78
2022/04/07 10:14:03;;;;;;;8.75;5.10;;;;;;;15.42;61.07;98465.42;1695326;83;27432;-78
2022/04/07 10:16:29;;;;;;;8.30;4.90;;;;;;;15.53;61.32;98462.22;1695643;83;25886;-78
2022/04/07 10:19:10;;;;;;;9.83;5.22;;;;;;;15.51;59.95;98462.49;1691198;83;25821;-79
2022/04/07 10:22:01;;;;;;;9.80;5.15;;;;;;;15.42;59.64;98461.37;1694707;83;25765;-79
2022/04/07 10:24:40;;;;;;;;;;;;;;;15.34;59.92;98452.48;1687360;82;25791;-78
2022/04/07 10:27:10;;;;;;;6.12;5.05;;;;;;;15.33;60.87;98460.31;1698508;82;27597;-78
2022/04/07 10:29:38;;;;;;;8.30;5.47;;;;;;;15.38;59.92;98453.55;1709501;82;25942;-78
2022/04/07 10:32:19;;;;;;;7.20;4.62;;;;;;;15.38;60.65;98446.28;1728325;81;25469;-78
2022/04/07 10:34:58;;;;;;;7.55;4.12;;;;;;;15.36;59.18;98444.92;1704634;83;26251;-78
2022/04/07 10:37:43;;;;;;;6.78;3.87;;;;;;;15.34;59.67;98445.73;1737561;81;25596;-78
2022/04/07 10:40:54;;;;;;;4.80;3.72;;;;;;;15.33;58.48;98439.52;1708145;83;27529;-78
2022/04/07 10:43:25;;;;;;;8.30;6.28;;;;;;;15.28;59.12;98427.41;1707625;81;26430;-78
2022/04/07 10:46:13;;;;;;;5.78;4.05;;;;;;;15.34;60.54;98422.80;1698454;82;26200;-78
2022/04/07 10:49:05;;;;;;;5.45;3.70;;;;;;;15.45;59.88;98423.11;1705074;83;25797;-78
2022/04/07 10:51:55;;;;;;;6.50;3.90;;;;;;;15.52;60.43;98416.09;1702070;84;26411;-78
2022/04/07 10:54:22;;;;;;;7.10;3.87;;;;;;;15.65;59.84;98410.14;1701898;84;27694;-78
2022/04/07 10:56:52;;;;;;;4.87;3.60;;;;;;;15.92;60.03;98409.27;1701977;82;25899;-78
2022/04/07 10:59:22;;;;;;;6.97;3.75;;;;;;;16.04;58.83;98399.78;1718945;82;25762;-78
2022/04/07 11:02:04;;;;;;;3.45;3.05;;;;;;;16.15;58.08;98397.84;1695263;83;25745;-78
2022/04/07 11:04:54;;;;;;;5.95;3.30;;;;;;;16.28;59.92;98401.31;1715993;81;25793;-78
2022/04/07 11:07:22;;;;;;;4.03;3.02;;;;;;;16.33;58.31;98392.37;1699074;82;27575;-78
2022/04/07 11:10:03;;;;;;;7.17;2.85;;;;;;;16.29;58.03;98389.97;1706391;82;25820;-79
2022/04/07 11:12:37;;;;;;;5.08;2.80;;;;;;;16.27;55.30;98378.63;1709498;83;25836;-79
2022/04/07 11:15:12;;;;;;;4.28;2.72;;;;;;;16.19;56.77;98370.02;1699664;82;25751;-78
2022/04/07 11:17:46;;;;;;;7.03;2.80;;;;;;;16.25;57.34;98357.84;1701060;83;25796;-79
2022/04/07 11:20:25;;;;;;;6.83;2.52;;;;;;;16.31;55.95;98368.35;1702376;83;28278;-79
2022/04/07 11:23:01;;;;;;;4.03;2.35;;;;;;;16.29;55.27;98361.06;1730652;82;26476;-78
2022/04/07 11:25:36;;;;;;;4.42;2.40;;;;;;;16.32;56.36;98367.25;1704636;82;25485;-78
2022/04/07 11:28:15;;;;;;;4.85;2.50;;;;;;;16.40;54.80;98364.52;1708755;82;26273;-79
2022/04/07 11:31:00;;;;;;;3.92;2.87;;;;;;;16.46;55.08;98358.81;1691690;83;26006;-79
2022/04/07 11:33:28;;;;;;;2.30;2.10;;;;;;;16.48;53.10;98351.23;1707266;82;27486;-79
2022/04/07 11:36:07;;;;;;;3.83;2.12;;;;;;;16.42;53.39;98349.66;1719337;82;25941;-79